createdAt,value
2022-07-31T00:00:58.693Z,23.00
2022-07-31T00:03:27.068Z,23.00
2022-07-31T00:05:54.255Z,23.00
2022-07-31T00:08:21.523Z,22.90
2022-07-31T00:10:48.539Z,22.90
2022-07-31T00:13:15.498Z,22.80
2022-07-31T00:15:42.694Z,22.80
2022-07-31T00:18:09.706Z,22.80
2022-07-31T00:20:38.206Z,22.70
2022-07-31T00:23:12.033Z,22.70
2022-07-31T00:25:46.358Z,22.70
2022-07-31T00:28:13.446Z,22.70
2022-07-31T00:30:40.538Z,22.70
2022-07-31T00:33:07.634Z,22.70
2022-07-31T00:35:34.802Z,22.70
2022-07-31T00:40:50.922Z,22.70
2022-07-31T00:43:21.405Z,22.60
2022-07-31T00:45:56.342Z,22.70
2022-07-31T00:48:26.353Z,22.60
2022-07-31T00:50:55.471Z,22.50
2022-07-31T00:53:23.920Z,22.50
2022-07-31T00:55:51.683Z,22.50
2022-07-31T00:58:22.211Z,22.50
2022-07-31T01:00:49.458Z,22.40
2022-07-31T01:03:18.526Z,22.40
2022-07-31T01:05:45.560Z,22.40
2022-07-31T01:08:12.753Z,22.30
2022-07-31T01:10:50.317Z,22.40
2022-07-31T01:13:29.673Z,22.30
2022-07-31T01:16:03.545Z,22.30
2022-07-31T01:18:33.473Z,22.20
2022-07-31T01:21:06.222Z,22.10
2022-07-31T01:24:08.618Z,22.00
2022-07-31T01:26:48.416Z,22.00
2022-07-31T01:29:25.551Z,21.90
2022-07-31T01:31:59.678Z,22.00
2022-07-31T01:34:37.027Z,22.00
2022-07-31T01:37:12.677Z,21.90
2022-07-31T01:39:45.907Z,21.90
2022-07-31T01:42:17.047Z,21.90
2022-07-31T01:44:51.609Z,22.00
2022-07-31T01:47:22.075Z,22.00
2022-07-31T01:49:52.036Z,22.00
2022-07-31T01:52:20.717Z,21.90
2022-07-31T01:54:49.100Z,21.90
2022-07-31T01:57:18.698Z,21.90
2022-07-31T01:59:49.866Z,21.80
2022-07-31T02:02:22.606Z,21.80
2022-07-31T02:04:51.253Z,21.80
2022-07-31T02:07:19.145Z,21.80
2022-07-31T02:09:53.712Z,21.70
2022-07-31T02:12:32.160Z,21.70
2022-07-31T02:15:04.425Z,21.70
2022-07-31T02:17:32.192Z,21.70
2022-07-31T02:20:02.549Z,21.60
2022-07-31T02:22:29.687Z,21.60
2022-07-31T02:24:57.095Z,21.60
2022-07-31T02:27:55.479Z,21.50
2022-07-31T02:30:16.158Z,21.50
2022-07-31T02:32:46.888Z,21.40
2022-07-31T02:35:16.926Z,21.30
2022-07-31T02:37:45.282Z,21.30
2022-07-31T02:40:14.194Z,21.30
2022-07-31T02:42:42.039Z,21.30
2022-07-31T02:45:14.190Z,21.30
2022-07-31T02:47:41.913Z,21.40
2022-07-31T02:50:09.590Z,21.40
2022-07-31T02:52:38.730Z,21.30
2022-07-31T02:55:07.770Z,21.30
2022-07-31T02:57:34.934Z,21.10
2022-07-31T03:00:22.877Z,21.10
2022-07-31T03:02:51.483Z,20.90
2022-07-31T03:05:18.639Z,21.00
2022-07-31T03:07:46.209Z,21.00
2022-07-31T03:10:13.582Z,21.00
2022-07-31T03:12:42.592Z,20.90
2022-07-31T03:15:15.553Z,20.90
2022-07-31T03:17:44.752Z,20.90
2022-07-31T03:20:14.213Z,20.90
2022-07-31T03:22:41.957Z,20.80
2022-07-31T03:25:10.132Z,20.80
2022-07-31T03:27:38.535Z,20.80
2022-07-31T03:30:07.679Z,20.70
2022-07-31T03:32:36.554Z,20.60
2022-07-31T03:35:04.373Z,20.50
2022-07-31T03:37:31.415Z,20.60
2022-07-31T03:39:58.378Z,20.60
2022-07-31T03:42:26.091Z,20.60
2022-07-31T03:44:54.004Z,20.50
2022-07-31T03:47:23.454Z,20.50
2022-07-31T03:49:52.011Z,20.60
2022-07-31T03:52:19.192Z,20.60
2022-07-31T03:54:46.210Z,20.60
2022-07-31T03:57:14.089Z,20.60
2022-07-31T03:59:48.645Z,20.60
2022-07-31T04:02:18.652Z,20.50
2022-07-31T04:04:46.156Z,20.50
2022-07-31T04:07:14.672Z,20.50
2022-07-31T04:09:41.747Z,20.50
2022-07-31T04:12:09.288Z,20.40
2022-07-31T04:14:36.317Z,20.30
2022-07-31T04:17:03.471Z,20.40
2022-07-31T04:19:31.046Z,20.50
2022-07-31T04:21:58.352Z,20.50
2022-07-31T04:24:27.017Z,20.50
2022-07-31T04:26:55.355Z,20.50
2022-07-31T04:29:22.473Z,20.50
2022-07-31T04:31:49.558Z,20.60
2022-07-31T04:34:22.508Z,20.70
2022-07-31T04:36:49.747Z,20.70
2022-07-31T04:39:16.945Z,20.70
2022-07-31T04:41:45.404Z,20.60
2022-07-31T04:44:12.440Z,20.60
2022-07-31T04:46:39.595Z,20.70
2022-07-31T04:49:06.637Z,20.70
2022-07-31T04:51:34.014Z,20.60
2022-07-31T04:54:00.948Z,20.70
2022-07-31T04:56:34.266Z,20.70
2022-07-31T04:59:06.042Z,20.70
2022-07-31T05:01:34.043Z,20.70
2022-07-31T05:04:05.381Z,20.70
2022-07-31T05:06:38.441Z,20.80
2022-07-31T05:09:09.505Z,20.70
2022-07-31T05:11:39.283Z,20.70
2022-07-31T05:14:12.130Z,20.70
2022-07-31T05:16:39.373Z,20.70
2022-07-31T05:19:14.589Z,20.70
2022-07-31T05:21:53.010Z,20.70
2022-07-31T05:24:33.572Z,20.70
2022-07-31T05:27:01.693Z,20.70
2022-07-31T05:29:30.362Z,20.80
2022-07-31T05:31:59.590Z,20.90
2022-07-31T05:34:27.459Z,21.00
2022-07-31T05:36:57.215Z,21.00
2022-07-31T05:39:25.344Z,21.00
2022-07-31T05:41:52.774Z,21.00
2022-07-31T05:44:20.029Z,21.00
2022-07-31T05:46:48.575Z,21.00
2022-07-31T05:49:15.974Z,21.00
2022-07-31T05:51:44.610Z,20.90
2022-07-31T05:54:11.659Z,20.80
2022-07-31T05:56:38.747Z,20.80
2022-07-31T05:59:05.727Z,20.80
2022-07-31T06:01:32.929Z,20.80
2022-07-31T06:04:02.580Z,20.90
2022-07-31T06:06:29.784Z,20.90
2022-07-31T06:09:03.379Z,21.00
2022-07-31T06:11:31.694Z,21.10
2022-07-31T06:13:58.744Z,21.00
2022-07-31T06:16:25.769Z,21.10
2022-07-31T06:18:52.875Z,21.20
2022-07-31T06:23:47.547Z,21.20
2022-07-31T06:26:15.153Z,21.30
2022-07-31T06:28:48.553Z,21.40
2022-07-31T06:31:20.278Z,21.40
2022-07-31T06:33:48.571Z,21.40
2022-07-31T06:36:15.896Z,21.50
2022-07-31T06:38:44.330Z,21.60
2022-07-31T06:41:11.844Z,21.60
2022-07-31T06:43:38.825Z,21.60
2022-07-31T06:46:05.762Z,21.70
2022-07-31T06:48:32.876Z,21.80
2022-07-31T06:51:27.825Z,22.00
2022-07-31T06:53:48.701Z,22.00
2022-07-31T06:56:15.898Z,22.10
2022-07-31T06:58:43.012Z,22.00
2022-07-31T07:01:10.064Z,21.90
2022-07-31T07:03:37.077Z,21.90
2022-07-31T07:06:04.573Z,22.10
2022-07-31T07:08:31.682Z,22.30
2022-07-31T07:11:00.087Z,22.40
2022-07-31T07:13:46.158Z,22.40
2022-07-31T07:16:14.333Z,22.30
2022-07-31T07:18:41.539Z,22.20
2022-07-31T07:21:08.561Z,22.20
2022-07-31T07:23:36.103Z,22.20
2022-07-31T07:26:04.849Z,22.20
2022-07-31T07:28:32.054Z,22.20
2022-07-31T07:30:59.117Z,22.20
2022-07-31T07:33:41.044Z,22.40
2022-07-31T07:36:23.024Z,22.40
2022-07-31T07:38:55.206Z,22.50
2022-07-31T07:41:24.430Z,22.60
2022-07-31T07:43:54.065Z,22.70
2022-07-31T07:46:22.435Z,22.70
2022-07-31T07:48:51.206Z,23.00
2022-07-31T07:51:19.469Z,23.10
2022-07-31T07:53:46.713Z,23.30
2022-07-31T07:56:13.899Z,23.40
2022-07-31T07:58:42.477Z,23.60
2022-07-31T08:01:09.550Z,23.70
2022-07-31T08:03:49.213Z,23.80
2022-07-31T08:06:19.624Z,24.00
2022-07-31T08:08:46.859Z,24.00
2022-07-31T08:11:16.799Z,24.00
2022-07-31T08:13:51.143Z,24.10
2022-07-31T08:16:19.718Z,24.10
2022-07-31T08:18:46.849Z,24.10
2022-07-31T08:21:14.876Z,24.10
2022-07-31T08:23:42.196Z,24.20
2022-07-31T08:26:09.504Z,24.20
2022-07-31T08:28:36.976Z,24.10
2022-07-31T08:31:05.620Z,24.20
2022-07-31T08:33:35.615Z,24.20
2022-07-31T08:36:04.830Z,24.30
2022-07-31T08:38:31.817Z,24.30
2022-07-31T08:40:58.987Z,24.30
2022-07-31T08:44:02.930Z,24.40
2022-07-31T08:46:14.990Z,24.50
2022-07-31T08:48:42.579Z,24.50
2022-07-31T08:51:12.420Z,24.50
2022-07-31T08:53:40.415Z,24.60
2022-07-31T08:56:09.004Z,24.60
2022-07-31T08:58:39.234Z,24.60
2022-07-31T09:01:08.266Z,24.60
2022-07-31T09:03:36.838Z,24.70
2022-07-31T09:06:05.021Z,24.70
2022-07-31T09:08:32.728Z,24.70
2022-07-31T09:11:06.109Z,24.70
2022-07-31T09:14:02.379Z,24.70
2022-07-31T09:16:31.238Z,24.70
2022-07-31T09:19:02.284Z,24.60
2022-07-31T09:21:40.273Z,24.60
2022-07-31T09:24:08.507Z,24.60
2022-07-31T09:26:36.850Z,24.60
2022-07-31T09:29:08.435Z,24.60
2022-07-31T09:31:35.789Z,24.50
2022-07-31T09:34:04.840Z,24.50
2022-07-31T09:36:32.086Z,24.50
2022-07-31T09:39:04.341Z,24.60
2022-07-31T09:42:01.596Z,24.60
2022-07-31T09:44:19.708Z,24.50
2022-07-31T09:46:59.498Z,24.60
2022-07-31T09:49:33.158Z,24.50
2022-07-31T09:52:01.145Z,24.60
2022-07-31T09:54:31.315Z,24.70
2022-07-31T09:56:58.648Z,24.80
2022-07-31T09:59:26.661Z,24.90
2022-07-31T10:02:01.472Z,25.10
2022-07-31T10:04:29.110Z,25.20
2022-07-31T10:06:58.623Z,25.40
2022-07-31T10:09:27.868Z,25.40
2022-07-31T10:11:58.840Z,25.40
2022-07-31T10:14:31.760Z,25.50
2022-07-31T10:17:01.513Z,25.60
2022-07-31T10:19:37.429Z,25.70
2022-07-31T10:22:06.812Z,25.80
2022-07-31T10:24:38.429Z,25.80
2022-07-31T10:27:09.363Z,25.90
2022-07-31T10:29:40.448Z,25.90
2022-07-31T10:32:08.614Z,26.00
2022-07-31T10:34:37.004Z,26.00
2022-07-31T10:37:11.594Z,26.00
2022-07-31T10:39:47.265Z,26.10
2022-07-31T10:42:31.936Z,26.20
2022-07-31T10:45:07.056Z,26.30
2022-07-31T10:47:34.278Z,26.40
2022-07-31T10:50:01.790Z,26.40
2022-07-31T10:52:32.250Z,26.50
2022-07-31T10:55:01.834Z,26.60
2022-07-31T10:57:31.911Z,26.50
2022-07-31T11:00:11.816Z,26.60
2022-07-31T11:02:42.222Z,26.60
2022-07-31T11:05:13.254Z,26.60
2022-07-31T11:07:44.704Z,26.60
2022-07-31T11:10:18.474Z,26.70
2022-07-31T11:13:00.013Z,26.60
2022-07-31T11:15:29.784Z,26.70
2022-07-31T11:18:17.444Z,26.70
2022-07-31T11:20:59.517Z,26.80
2022-07-31T11:23:31.859Z,26.90
2022-07-31T11:26:00.321Z,26.90
2022-07-31T11:28:27.843Z,26.90
2022-07-31T11:30:57.216Z,26.80
2022-07-31T11:33:42.133Z,26.80
2022-07-31T11:36:12.919Z,26.90
2022-07-31T11:38:44.685Z,26.90
2022-07-31T11:41:15.386Z,27.00
2022-07-31T11:43:47.057Z,27.00
2022-07-31T11:46:25.153Z,27.20
2022-07-31T11:48:52.912Z,27.40
2022-07-31T11:51:21.587Z,27.50
2022-07-31T11:53:57.281Z,27.50
2022-07-31T11:56:28.200Z,27.60
2022-07-31T11:58:57.358Z,27.50
2022-07-31T12:01:29.572Z,27.40
2022-07-31T12:04:01.612Z,27.40
2022-07-31T12:06:37.300Z,27.40
2022-07-31T12:09:05.924Z,27.40
2022-07-31T12:11:33.492Z,27.50
2022-07-31T12:14:00.566Z,27.50
2022-07-31T12:16:27.819Z,27.60
2022-07-31T12:18:59.094Z,27.70
2022-07-31T12:21:33.255Z,27.90
2022-07-31T12:24:00.772Z,28.00
2022-07-31T12:26:31.784Z,28.10
2022-07-31T12:29:00.866Z,28.00
2022-07-31T12:31:29.556Z,27.90
2022-07-31T12:33:59.666Z,27.90
2022-07-31T12:36:27.299Z,27.80
2022-07-31T12:39:02.297Z,27.90
2022-07-31T12:41:37.343Z,27.90
2022-07-31T12:44:13.381Z,27.90
2022-07-31T12:46:42.127Z,27.80
2022-07-31T12:49:09.425Z,27.80
2022-07-31T12:51:46.659Z,27.70
2022-07-31T12:54:15.634Z,27.60
2022-07-31T12:56:46.847Z,27.60
2022-07-31T12:59:14.846Z,27.50
2022-07-31T13:01:42.531Z,27.50
2022-07-31T13:04:18.902Z,27.50
2022-07-31T13:06:51.833Z,27.60
2022-07-31T13:09:19.972Z,27.80
2022-07-31T13:11:51.323Z,27.90
2022-07-31T13:14:23.875Z,27.90
2022-07-31T13:16:53.060Z,28.00
2022-07-31T13:19:20.747Z,28.10
2022-07-31T13:21:50.169Z,28.20
2022-07-31T13:24:18.817Z,28.20
2022-07-31T13:26:46.306Z,28.30
2022-07-31T13:29:15.811Z,28.20
2022-07-31T13:31:43.153Z,28.20
2022-07-31T13:34:10.332Z,28.30
2022-07-31T13:36:39.454Z,28.40
2022-07-31T13:39:06.842Z,28.40
2022-07-31T13:41:35.297Z,28.50
2022-07-31T13:44:03.560Z,28.40
2022-07-31T13:46:31.990Z,28.40
2022-07-31T13:48:59.678Z,28.40
2022-07-31T13:51:29.874Z,28.30
2022-07-31T13:53:57.201Z,28.20
2022-07-31T13:56:36.793Z,28.20
2022-07-31T13:59:09.844Z,28.10
2022-07-31T14:02:03.123Z,28.10
2022-07-31T14:04:31.362Z,28.10
2022-07-31T14:07:00.937Z,28.10
2022-07-31T14:09:28.503Z,28.20
2022-07-31T14:11:58.381Z,28.30
2022-07-31T14:14:28.491Z,28.40
2022-07-31T14:16:56.851Z,28.40
2022-07-31T14:19:23.824Z,28.40
2022-07-31T14:21:56.748Z,28.40
2022-07-31T14:24:25.397Z,28.40
2022-07-31T14:26:53.090Z,28.40
2022-07-31T14:29:20.529Z,28.30
2022-07-31T14:31:47.501Z,28.30
2022-07-31T14:34:15.924Z,28.30
2022-07-31T14:36:43.392Z,28.30
2022-07-31T14:39:10.376Z,28.20
2022-07-31T14:41:40.274Z,28.30
2022-07-31T14:44:07.447Z,28.30
2022-07-31T14:46:34.786Z,28.20
2022-07-31T14:49:02.776Z,28.20
2022-07-31T14:51:31.223Z,28.30
2022-07-31T14:53:59.689Z,28.30
2022-07-31T14:56:58.567Z,28.30
2022-07-31T14:59:17.008Z,28.30
2022-07-31T15:01:44.065Z,28.30
2022-07-31T15:04:11.244Z,28.30
2022-07-31T15:07:07.250Z,28.30
2022-07-31T15:09:31.057Z,28.30
2022-07-31T15:12:01.226Z,28.30
2022-07-31T15:14:29.250Z,28.30
2022-07-31T15:16:56.409Z,28.30
2022-07-31T15:19:23.800Z,28.40
2022-07-31T15:22:09.870Z,28.40
2022-07-31T15:24:48.107Z,28.40
2022-07-31T15:27:15.978Z,28.50
2022-07-31T15:30:03.930Z,28.40
2022-07-31T15:32:30.299Z,28.40
2022-07-31T15:34:57.664Z,28.50
2022-07-31T15:37:26.182Z,28.50
2022-07-31T15:40:04.004Z,28.50
2022-07-31T15:42:31.755Z,28.40
2022-07-31T15:44:59.233Z,28.20
2022-07-31T15:47:26.648Z,28.20
2022-07-31T15:49:53.822Z,28.20
2022-07-31T15:52:21.018Z,28.10
2022-07-31T15:54:51.650Z,28.10
2022-07-31T15:57:19.744Z,28.00
2022-07-31T15:59:47.152Z,28.10
2022-07-31T16:02:14.357Z,28.10
2022-07-31T16:04:51.696Z,28.20
2022-07-31T16:08:33.190Z,28.10
2022-07-31T16:10:15.911Z,28.20
2022-07-31T16:12:44.551Z,28.20
2022-07-31T16:15:12.825Z,28.30
2022-07-31T16:17:40.340Z,28.30
2022-07-31T16:20:10.518Z,28.40
2022-07-31T16:22:39.507Z,28.40
2022-07-31T16:25:10.214Z,28.50
2022-07-31T16:27:38.269Z,28.50
2022-07-31T16:30:08.906Z,28.60
2022-07-31T16:32:35.939Z,28.60
2022-07-31T16:35:03.180Z,28.60
2022-07-31T16:37:50.400Z,28.60
2022-07-31T16:40:29.267Z,28.60
2022-07-31T16:43:01.301Z,28.60
2022-07-31T16:45:29.600Z,28.60
2022-07-31T16:47:57.298Z,28.60
2022-07-31T16:50:27.642Z,28.60
2022-07-31T16:53:00.596Z,28.60
2022-07-31T16:55:51.767Z,28.60
2022-07-31T16:58:17.319Z,28.60
2022-07-31T17:00:51.946Z,28.60
2022-07-31T17:03:59.463Z,28.60
2022-07-31T17:06:10.334Z,28.60
2022-07-31T17:08:38.301Z,28.70
2022-07-31T17:11:07.079Z,28.70
2022-07-31T17:13:34.251Z,28.70
2022-07-31T17:16:01.337Z,28.70
2022-07-31T17:18:28.759Z,28.70
2022-07-31T17:20:59.790Z,28.70
2022-07-31T17:23:43.276Z,28.70
2022-07-31T17:26:21.204Z,28.60
2022-07-31T17:28:49.590Z,28.50
2022-07-31T17:31:16.600Z,28.50
2022-07-31T17:33:49.562Z,28.40
2022-07-31T17:36:27.162Z,28.40
2022-07-31T17:38:57.351Z,28.40
2022-07-31T17:41:26.270Z,28.30
2022-07-31T17:43:54.091Z,28.30
2022-07-31T17:46:28.256Z,28.30
2022-07-31T17:49:02.218Z,28.20
2022-07-31T17:51:29.209Z,28.20
2022-07-31T17:53:59.526Z,28.20
2022-07-31T17:56:28.575Z,28.20
2022-07-31T17:59:03.824Z,28.10
2022-07-31T18:01:30.940Z,28.20
2022-07-31T18:03:58.138Z,28.10
2022-07-31T18:06:25.369Z,28.10
2022-07-31T18:08:52.541Z,28.10
2022-07-31T18:11:21.421Z,28.10
2022-07-31T18:13:55.228Z,28.00
2022-07-31T18:16:23.705Z,28.00
2022-07-31T18:18:54.358Z,28.00
2022-07-31T18:21:22.097Z,27.90
2022-07-31T18:23:49.488Z,27.80
2022-07-31T18:26:16.877Z,27.80
2022-07-31T18:28:51.040Z,27.80
2022-07-31T18:31:34.423Z,27.80
2022-07-31T18:34:03.959Z,27.80
2022-07-31T18:36:31.304Z,27.80
2022-07-31T18:39:01.517Z,27.80
2022-07-31T18:41:33.931Z,27.70
2022-07-31T18:44:02.456Z,27.70
2022-07-31T18:46:32.059Z,27.60
2022-07-31T18:49:00.528Z,27.60
2022-07-31T18:51:29.074Z,27.60
2022-07-31T18:53:59.337Z,27.50
2022-07-31T18:56:26.464Z,27.50
2022-07-31T18:58:54.502Z,27.40
2022-07-31T19:01:23.715Z,27.40
2022-07-31T19:03:51.631Z,27.30
2022-07-31T19:06:18.919Z,27.30
2022-07-31T19:08:46.220Z,27.20
2022-07-31T19:11:13.445Z,27.20
2022-07-31T19:13:40.521Z,27.20
2022-07-31T19:16:08.541Z,27.10
2022-07-31T19:18:39.301Z,27.10
2022-07-31T19:21:17.969Z,27.10
2022-07-31T19:23:51.206Z,27.00
2022-07-31T19:26:18.432Z,26.90
2022-07-31T19:28:45.528Z,26.90
2022-07-31T19:31:13.429Z,26.90
2022-07-31T19:33:41.943Z,26.90
2022-07-31T19:36:10.808Z,26.80
2022-07-31T19:38:39.579Z,26.80
2022-07-31T19:41:06.776Z,26.80
2022-07-31T19:43:33.898Z,26.60
2022-07-31T19:46:11.127Z,26.50
2022-07-31T19:48:41.605Z,26.50
2022-07-31T19:51:09.579Z,26.50
2022-07-31T19:53:42.881Z,26.40
2022-07-31T19:56:13.865Z,26.20
2022-07-31T19:58:45.329Z,26.10
2022-07-31T20:01:21.805Z,26.10
2022-07-31T20:03:50.905Z,26.00
2022-07-31T20:06:20.536Z,25.90
2022-07-31T20:08:49.022Z,26.00
2022-07-31T20:11:17.304Z,26.10
2022-07-31T20:13:44.796Z,26.10
2022-07-31T20:16:11.943Z,26.10
2022-07-31T20:18:38.931Z,26.10
2022-07-31T20:21:10.762Z,26.10
2022-07-31T20:23:41.605Z,26.10
2022-07-31T20:26:11.711Z,26.10
2022-07-31T20:28:40.300Z,26.00
2022-07-31T20:31:08.322Z,26.00
2022-07-31T20:33:47.496Z,26.00
2022-07-31T20:36:28.616Z,25.90
2022-07-31T20:38:57.967Z,25.80
2022-07-31T20:41:25.436Z,25.80
2022-07-31T20:43:52.411Z,25.80
2022-07-31T20:46:21.767Z,25.70
2022-07-31T20:48:49.878Z,25.70
2022-07-31T20:51:23.661Z,25.70
2022-07-31T20:53:54.083Z,25.70
2022-07-31T20:56:22.138Z,25.60
2022-07-31T20:58:51.695Z,25.60
2022-07-31T21:01:20.102Z,25.60
2022-07-31T21:03:47.650Z,25.50
2022-07-31T21:06:14.925Z,25.50
2022-07-31T21:08:42.213Z,25.50
2022-07-31T21:11:10.566Z,25.40
2022-07-31T21:13:38.237Z,25.40
2022-07-31T21:16:05.870Z,25.40
2022-07-31T21:18:40.004Z,25.40
2022-07-31T21:21:09.791Z,25.30
2022-07-31T21:23:40.137Z,25.30
2022-07-31T21:26:08.139Z,25.30
2022-07-31T21:28:37.343Z,25.20
2022-07-31T21:31:05.305Z,25.20
2022-07-31T21:33:33.558Z,25.10
2022-07-31T21:36:01.293Z,25.10
2022-07-31T21:38:28.627Z,25.10
2022-07-31T21:40:56.366Z,25.10
2022-07-31T21:43:24.674Z,25.10
2022-07-31T21:45:57.400Z,25.00
2022-07-31T21:48:30.359Z,25.10
2022-07-31T21:50:58.809Z,25.00
2022-07-31T21:53:25.928Z,25.00
2022-07-31T21:55:52.998Z,25.00
2022-07-31T21:58:26.314Z,25.00
2022-07-31T22:00:54.784Z,25.00
2022-07-31T22:03:21.877Z,25.00
2022-07-31T22:06:09.407Z,24.90
2022-07-31T22:08:36.746Z,24.90
2022-07-31T22:11:04.298Z,24.90
2022-07-31T22:13:34.000Z,24.90
2022-07-31T22:16:02.657Z,24.80
2022-07-31T22:18:32.188Z,24.80
2022-07-31T22:21:00.932Z,24.80
2022-07-31T22:23:31.312Z,24.80
2022-07-31T22:25:58.834Z,24.80
2022-07-31T22:28:29.393Z,24.80
2022-07-31T22:31:02.814Z,24.80
2022-07-31T22:33:35.625Z,24.70
2022-07-31T22:36:06.935Z,24.80
2022-07-31T22:38:34.746Z,24.80
2022-07-31T22:41:02.499Z,24.80
2022-07-31T22:44:13.983Z,24.80
2022-07-31T22:46:21.390Z,24.70
2022-07-31T22:48:48.696Z,24.70
2022-07-31T22:51:15.994Z,24.70
2022-07-31T22:53:44.069Z,24.70
2022-07-31T22:56:11.277Z,24.60
2022-07-31T22:58:38.423Z,24.70
2022-07-31T23:01:05.500Z,24.60
2022-07-31T23:03:33.999Z,24.60
2022-07-31T23:06:03.490Z,24.50
2022-07-31T23:08:53.773Z,24.50
2022-07-31T23:11:22.790Z,24.50
2022-07-31T23:13:52.983Z,24.40
2022-07-31T23:16:20.502Z,24.40
2022-07-31T23:18:49.587Z,24.40
2022-07-31T23:21:16.917Z,24.40
2022-07-31T23:23:48.642Z,24.40
2022-07-31T23:26:17.783Z,24.30
2022-07-31T23:28:44.817Z,24.30
2022-07-31T23:31:11.868Z,24.30
2022-07-31T23:33:39.124Z,24.30
2022-07-31T23:36:07.843Z,24.30
2022-07-31T23:38:35.016Z,24.30
2022-07-31T23:41:02.693Z,24.20
2022-07-31T23:43:29.928Z,24.20
2022-07-31T23:45:57.246Z,24.20
2022-07-31T23:48:24.707Z,24.10
2022-07-31T23:50:57.012Z,24.10
2022-07-31T23:53:25.523Z,24.00
2022-07-31T23:55:52.548Z,24.00
2022-07-31T23:58:19.961Z,24.00
